createdAt,value
2023-05-05T00:01:22.068Z,13.60
2023-05-05T00:03:49.120Z,13.50
2023-05-05T00:06:16.188Z,13.50
2023-05-05T00:08:42.960Z,13.50
2023-05-05T00:11:09.840Z,13.30
2023-05-05T00:13:36.579Z,13.30
2023-05-05T00:16:03.896Z,13.20
2023-05-05T00:18:30.742Z,13.30
2023-05-05T00:20:57.496Z,13.40
2023-05-05T00:23:24.226Z,13.30
2023-05-05T00:25:51.084Z,13.30
2023-05-05T00:28:17.942Z,13.20
2023-05-05T00:30:45.119Z,13.20
2023-05-05T00:33:12.218Z,13.30
2023-05-05T00:35:39.028Z,13.30
2023-05-05T00:38:06.161Z,13.20
2023-05-05T00:40:32.909Z,13.20
2023-05-05T00:42:59.690Z,13.20
2023-05-05T00:45:26.827Z,13.10
2023-05-05T00:47:58.873Z,13.00
2023-05-05T00:50:28.671Z,13.00
2023-05-05T00:53:00.332Z,13.00
2023-05-05T00:55:28.959Z,13.00
2023-05-05T00:57:59.641Z,12.90
2023-05-05T01:00:27.339Z,12.90
2023-05-05T01:02:55.565Z,12.90
2023-05-05T01:05:24.253Z,13.00
2023-05-05T01:08:05.955Z,13.00
2023-05-05T01:10:53.991Z,13.00
2023-05-05T01:13:34.214Z,13.10
2023-05-05T01:16:27.368Z,13.00
2023-05-05T01:19:32.748Z,13.10
2023-05-05T01:22:02.266Z,13.00
2023-05-05T01:24:45.832Z,13.00
2023-05-05T01:27:55.546Z,13.10
2023-05-05T01:30:43.515Z,13.20
2023-05-05T01:33:14.404Z,13.20
2023-05-05T01:35:50.160Z,13.20
2023-05-05T01:38:24.900Z,13.20
2023-05-05T01:41:16.947Z,13.20
2023-05-05T01:43:47.550Z,13.10
2023-05-05T01:46:15.869Z,13.10
2023-05-05T01:48:44.073Z,13.10
2023-05-05T01:51:12.078Z,13.20
2023-05-05T01:53:39.692Z,13.10
2023-05-05T01:56:08.216Z,13.10
2023-05-05T01:58:36.193Z,13.20
2023-05-05T02:01:04.606Z,13.20
2023-05-05T02:03:33.943Z,13.20
2023-05-05T02:06:02.386Z,13.30
2023-05-05T02:08:30.805Z,13.20
2023-05-05T02:10:58.349Z,13.10
2023-05-05T02:13:26.089Z,13.00
2023-05-05T02:15:54.725Z,12.90
2023-05-05T02:18:23.117Z,13.00
2023-05-05T02:20:50.542Z,12.90
2023-05-05T02:23:17.355Z,12.90
2023-05-05T02:25:51.257Z,12.80
2023-05-05T02:28:45.867Z,12.70
2023-05-05T02:31:14.617Z,12.70
2023-05-05T02:33:43.073Z,12.60
2023-05-05T02:36:17.843Z,12.60
2023-05-05T02:38:57.858Z,12.40
2023-05-05T02:41:29.423Z,12.40
2023-05-05T02:44:02.323Z,12.40
2023-05-05T02:46:31.305Z,12.30
2023-05-05T02:48:59.705Z,12.30
2023-05-05T02:51:27.539Z,12.20
2023-05-05T02:53:55.507Z,12.10
2023-05-05T02:56:33.326Z,12.20
2023-05-05T02:59:07.718Z,12.10
2023-05-05T03:01:59.245Z,12.10
2023-05-05T03:04:42.431Z,12.00
2023-05-05T03:07:21.856Z,12.00
2023-05-05T03:10:00.897Z,12.00
2023-05-05T03:12:36.012Z,12.00
2023-05-05T03:15:14.190Z,12.00
2023-05-05T03:17:42.898Z,12.00
2023-05-05T03:20:12.321Z,12.00
2023-05-05T03:22:41.766Z,11.90
2023-05-05T03:25:12.389Z,11.90
2023-05-05T03:27:39.151Z,11.80
2023-05-05T03:30:07.585Z,11.80
2023-05-05T03:32:38.165Z,11.80
2023-05-05T03:35:05.275Z,11.80
2023-05-05T03:37:33.762Z,11.80
2023-05-05T03:40:00.507Z,11.70
2023-05-05T03:42:27.206Z,11.80
2023-05-05T03:44:54.218Z,11.80
2023-05-05T03:47:24.551Z,11.80
2023-05-05T03:49:52.390Z,11.90
2023-05-05T03:52:19.112Z,12.00
2023-05-05T03:54:46.483Z,11.90
2023-05-05T03:57:13.165Z,11.90
2023-05-05T03:59:40.864Z,12.00
2023-05-05T04:02:07.797Z,12.00
2023-05-05T04:04:34.749Z,11.90
2023-05-05T04:07:01.610Z,11.90
2023-05-05T04:09:28.298Z,11.90
2023-05-05T04:11:55.020Z,12.00
2023-05-05T04:14:22.208Z,12.00
2023-05-05T04:16:49.261Z,11.90
2023-05-05T04:19:16.178Z,11.90
2023-05-05T04:21:42.888Z,12.00
2023-05-05T04:24:09.841Z,12.10
2023-05-05T04:26:36.636Z,12.10
2023-05-05T04:29:03.427Z,12.00
2023-05-05T04:31:31.775Z,12.10
2023-05-05T04:33:58.458Z,12.00
2023-05-05T04:36:25.093Z,12.10
2023-05-05T04:38:51.795Z,12.10
2023-05-05T04:41:18.510Z,12.20
2023-05-05T04:43:46.031Z,12.30
2023-05-05T04:46:13.626Z,12.20
2023-05-05T04:48:40.473Z,12.30
2023-05-05T04:51:08.261Z,12.40
2023-05-05T04:53:36.513Z,12.50
2023-05-05T04:56:03.326Z,12.50
2023-05-05T04:58:30.218Z,12.60
2023-05-05T05:00:57.162Z,12.60
2023-05-05T05:03:24.032Z,12.70
2023-05-05T05:05:51.644Z,12.80
2023-05-05T05:08:18.411Z,12.80
2023-05-05T05:10:45.544Z,12.90
2023-05-05T05:13:13.044Z,13.00
2023-05-05T05:15:40.614Z,13.00
2023-05-05T05:18:07.421Z,13.10
2023-05-05T05:20:34.419Z,13.10
2023-05-05T05:23:04.482Z,13.10
2023-05-05T05:25:33.975Z,13.30
2023-05-05T05:28:09.549Z,13.50
2023-05-05T05:30:41.071Z,13.90
2023-05-05T05:33:09.622Z,15.50
2023-05-05T05:35:36.522Z,17.60
2023-05-05T05:38:03.931Z,19.30
2023-05-05T05:40:31.483Z,20.40
2023-05-05T05:42:58.739Z,21.30
2023-05-05T05:45:26.383Z,22.10
2023-05-05T05:47:53.196Z,21.90
2023-05-05T05:50:20.663Z,21.00
2023-05-05T05:52:47.600Z,20.30
2023-05-05T05:55:15.312Z,19.70
2023-05-05T05:57:42.463Z,19.20
2023-05-05T06:00:11.358Z,18.70
2023-05-05T06:02:43.950Z,18.30
2023-05-05T06:05:14.343Z,18.10
2023-05-05T06:07:42.480Z,18.00
2023-05-05T06:10:25.733Z,17.70
2023-05-05T06:12:59.117Z,17.90
2023-05-05T06:15:26.413Z,18.00
2023-05-05T06:17:53.596Z,18.20
2023-05-05T06:20:21.740Z,18.30
2023-05-05T06:22:48.488Z,18.40
2023-05-05T06:25:15.547Z,18.50
2023-05-05T06:27:42.212Z,18.70
2023-05-05T06:30:09.760Z,18.90
2023-05-05T06:32:36.637Z,18.90
2023-05-05T06:35:03.455Z,19.20
2023-05-05T06:37:30.272Z,19.30
2023-05-05T06:39:56.937Z,19.50
2023-05-05T06:42:23.594Z,19.30
2023-05-05T06:44:52.213Z,19.30
2023-05-05T06:47:19.057Z,19.20
2023-05-05T06:49:45.804Z,19.20
2023-05-05T06:52:12.600Z,19.30
2023-05-05T06:54:39.318Z,19.20
2023-05-05T06:57:06.374Z,19.10
2023-05-05T06:59:33.046Z,19.30
2023-05-05T07:01:59.717Z,19.30
2023-05-05T07:04:26.768Z,19.40
2023-05-05T07:06:55.126Z,19.60
2023-05-05T07:09:21.864Z,19.40
2023-05-05T07:11:48.538Z,19.30
2023-05-05T07:14:16.310Z,19.60
2023-05-05T07:16:43.013Z,19.80
2023-05-05T07:19:09.751Z,19.90
2023-05-05T07:21:36.681Z,20.20
2023-05-05T07:24:03.815Z,20.40
2023-05-05T07:26:30.950Z,20.30
2023-05-05T07:28:58.932Z,20.40
2023-05-05T07:31:26.527Z,20.40
2023-05-05T07:33:53.599Z,20.50
2023-05-05T07:36:20.477Z,19.90
2023-05-05T07:38:47.175Z,19.80
2023-05-05T07:41:13.891Z,19.70
2023-05-05T07:43:44.678Z,19.90
2023-05-05T07:46:12.084Z,19.90
2023-05-05T07:48:41.647Z,19.80
2023-05-05T07:51:09.239Z,19.90
2023-05-05T07:53:36.320Z,20.20
2023-05-05T07:56:03.144Z,19.90
2023-05-05T07:58:29.949Z,20.30
2023-05-05T08:00:56.961Z,20.30
2023-05-05T08:03:24.864Z,20.50
2023-05-05T08:05:54.328Z,20.60
2023-05-05T08:08:24.404Z,20.70
2023-05-05T08:10:52.829Z,20.80
2023-05-05T08:13:19.526Z,21.20
2023-05-05T08:15:46.249Z,21.40
2023-05-05T08:18:12.980Z,21.60
2023-05-05T08:20:39.672Z,21.60
2023-05-05T08:23:06.360Z,21.90
2023-05-05T08:25:33.041Z,22.10
2023-05-05T08:27:59.750Z,21.90
2023-05-05T08:30:26.987Z,21.80
2023-05-05T08:32:53.780Z,22.00
2023-05-05T08:35:20.776Z,22.00
2023-05-05T08:37:47.493Z,21.80
2023-05-05T08:40:14.932Z,21.90
2023-05-05T08:42:42.303Z,22.10
2023-05-05T08:45:10.697Z,22.20
2023-05-05T08:47:39.356Z,21.90
2023-05-05T08:50:07.204Z,21.80
2023-05-05T08:52:40.326Z,22.00
2023-05-05T08:55:27.193Z,21.90
2023-05-05T08:57:58.009Z,21.90
2023-05-05T09:00:26.950Z,21.80
2023-05-05T09:02:57.402Z,21.90
2023-05-05T09:05:24.904Z,22.20
2023-05-05T09:07:52.107Z,22.70
2023-05-05T09:10:19.513Z,22.60
2023-05-05T09:12:46.453Z,22.60
2023-05-05T09:15:15.252Z,22.80
2023-05-05T09:17:43.011Z,22.60
2023-05-05T09:20:14.373Z,22.70
2023-05-05T09:22:43.721Z,22.90
2023-05-05T09:25:12.944Z,22.90
2023-05-05T09:27:42.143Z,22.70
2023-05-05T09:30:10.882Z,22.60
2023-05-05T09:32:51.687Z,22.70
2023-05-05T09:35:22.290Z,22.80
2023-05-05T09:37:49.230Z,22.80
2023-05-05T09:40:18.333Z,22.80
2023-05-05T09:42:45.665Z,22.90
2023-05-05T09:45:18.639Z,22.90
2023-05-05T09:47:46.928Z,22.60
2023-05-05T09:50:16.302Z,22.80
2023-05-05T09:52:43.303Z,22.80
2023-05-05T09:55:18.200Z,23.30
2023-05-05T09:57:47.202Z,23.20
2023-05-05T10:00:14.708Z,23.40
2023-05-05T10:02:41.888Z,23.40
2023-05-05T10:05:08.982Z,23.60
2023-05-05T10:07:36.923Z,23.40
2023-05-05T10:10:09.147Z,23.40
2023-05-05T10:12:37.530Z,23.40
2023-05-05T10:15:06.455Z,23.80
2023-05-05T10:17:36.847Z,23.50
2023-05-05T10:20:04.315Z,23.80
2023-05-05T10:22:35.250Z,24.10
2023-05-05T10:25:13.785Z,24.30
2023-05-05T10:27:52.816Z,24.40
2023-05-05T10:30:31.291Z,24.20
2023-05-05T10:35:43.791Z,24.30
2023-05-05T10:38:12.526Z,23.80
2023-05-05T10:40:46.421Z,23.90
2023-05-05T10:43:14.598Z,24.00
2023-05-05T10:45:42.315Z,23.70
2023-05-05T10:48:14.522Z,23.70
2023-05-05T10:50:51.099Z,23.80
2023-05-05T10:53:25.980Z,24.00
2023-05-05T10:56:07.607Z,23.70
2023-05-05T10:58:47.122Z,23.90
2023-05-05T11:01:35.258Z,24.20
2023-05-05T11:04:18.396Z,24.10
2023-05-05T11:07:13.460Z,23.90
2023-05-05T11:09:58.581Z,23.80
2023-05-05T11:12:25.321Z,23.90
2023-05-05T11:15:26.204Z,24.00
2023-05-05T11:17:56.739Z,24.20
2023-05-05T11:20:43.258Z,24.30
2023-05-05T11:23:09.857Z,24.20
2023-05-05T11:25:37.392Z,24.10
2023-05-05T11:28:08.887Z,24.00
2023-05-05T11:30:56.946Z,24.20
2023-05-05T11:33:29.006Z,24.40
2023-05-05T11:35:59.488Z,24.50
2023-05-05T11:38:41.269Z,24.60
2023-05-05T11:41:37.102Z,24.40
2023-05-05T11:44:12.575Z,24.40
2023-05-05T11:46:51.411Z,24.50
2023-05-05T11:49:34.778Z,24.60
2023-05-05T11:52:02.389Z,24.50
2023-05-05T11:54:29.585Z,24.60
2023-05-05T11:56:58.927Z,24.80
2023-05-05T11:59:25.966Z,24.80
2023-05-05T12:01:52.846Z,24.70
2023-05-05T12:04:20.430Z,24.70
2023-05-05T12:06:48.884Z,24.90
2023-05-05T12:09:20.027Z,24.80
2023-05-05T12:11:50.640Z,24.60
2023-05-05T12:14:17.410Z,24.50
2023-05-05T12:16:57.442Z,24.90
2023-05-05T12:19:29.944Z,25.20
2023-05-05T12:21:56.996Z,24.90
2023-05-05T12:24:23.755Z,24.80
2023-05-05T12:26:50.542Z,24.80
2023-05-05T12:29:28.594Z,24.70
2023-05-05T12:31:55.705Z,24.80
2023-05-05T12:34:23.527Z,25.00
2023-05-05T12:36:50.426Z,24.90
2023-05-05T12:39:17.076Z,24.60
2023-05-05T12:41:43.934Z,24.80
2023-05-05T12:44:10.841Z,24.90
2023-05-05T12:46:48.352Z,24.80
2023-05-05T12:49:15.334Z,25.10
2023-05-05T12:51:55.693Z,25.20
2023-05-05T12:54:24.307Z,25.10
2023-05-05T12:56:51.173Z,25.10
2023-05-05T12:59:24.120Z,25.00
2023-05-05T13:01:59.842Z,25.00
2023-05-05T13:04:28.127Z,25.20
2023-05-05T13:07:14.775Z,25.40
2023-05-05T13:09:42.049Z,25.50
2023-05-05T13:12:11.515Z,25.40
2023-05-05T13:14:39.132Z,25.20
2023-05-05T13:17:05.874Z,25.10
2023-05-05T13:19:35.369Z,24.90
2023-05-05T13:22:02.136Z,24.80
2023-05-05T13:24:42.407Z,24.80
2023-05-05T13:27:13.798Z,24.80
2023-05-05T13:29:41.567Z,24.70
2023-05-05T13:32:08.320Z,24.50
2023-05-05T13:34:35.006Z,24.50
2023-05-05T13:37:01.647Z,24.60
2023-05-05T13:39:28.312Z,24.70
2023-05-05T13:41:55.014Z,24.70
2023-05-05T13:44:22.006Z,24.60
2023-05-05T13:46:48.875Z,24.50
2023-05-05T13:49:15.662Z,24.30
2023-05-05T13:51:42.387Z,24.30
2023-05-05T13:54:09.672Z,24.10
2023-05-05T13:56:36.405Z,24.10
2023-05-05T13:59:03.089Z,23.90
2023-05-05T14:01:30.312Z,23.60
2023-05-05T14:03:57.887Z,23.60
2023-05-05T14:06:24.996Z,23.50
2023-05-05T14:08:51.957Z,23.40
2023-05-05T14:11:20.699Z,23.40
2023-05-05T14:13:48.008Z,23.30
2023-05-05T14:16:14.811Z,23.10
2023-05-05T14:18:41.609Z,23.10
2023-05-05T14:21:08.563Z,22.80
2023-05-05T14:23:35.273Z,22.50
2023-05-05T14:26:02.120Z,22.00
2023-05-05T14:28:28.891Z,21.00
2023-05-05T14:30:56.026Z,20.30
2023-05-05T14:33:22.683Z,19.90
2023-05-05T14:35:49.511Z,19.60
2023-05-05T14:38:16.170Z,19.50
2023-05-05T14:40:42.861Z,19.50
2023-05-05T14:43:09.519Z,19.50
2023-05-05T14:45:36.338Z,19.30
2023-05-05T14:48:03.141Z,19.20
2023-05-05T14:50:29.917Z,19.40
2023-05-05T14:52:56.547Z,19.50
2023-05-05T14:55:24.885Z,19.50
2023-05-05T14:57:51.911Z,19.40
2023-05-05T15:00:18.813Z,19.60
2023-05-05T15:02:45.638Z,19.90
2023-05-05T15:05:12.434Z,20.00
2023-05-05T15:07:40.036Z,20.00
2023-05-05T15:10:07.566Z,20.00
2023-05-05T15:12:34.414Z,20.00
2023-05-05T15:15:01.278Z,19.80
2023-05-05T15:17:28.565Z,19.80
2023-05-05T15:19:55.288Z,19.60
2023-05-05T15:22:22.007Z,19.60
2023-05-05T15:24:48.727Z,19.60
2023-05-05T15:27:15.447Z,19.50
2023-05-05T15:29:42.072Z,19.30
2023-05-05T15:32:08.725Z,19.20
2023-05-05T15:34:37.141Z,18.90
2023-05-05T15:37:03.989Z,18.80
2023-05-05T15:39:30.716Z,19.00
2023-05-05T15:41:57.406Z,19.00
2023-05-05T15:44:24.074Z,19.00
2023-05-05T15:46:50.915Z,19.10
2023-05-05T15:49:17.631Z,19.20
2023-05-05T15:51:44.304Z,19.30
2023-05-05T15:54:11.049Z,19.40
2023-05-05T15:56:37.944Z,19.40
2023-05-05T15:59:04.623Z,19.50
2023-05-05T16:01:33.409Z,19.50
2023-05-05T16:04:01.245Z,19.60
2023-05-05T16:06:28.141Z,19.70
2023-05-05T16:08:56.081Z,19.80
2023-05-05T16:11:23.718Z,19.90
2023-05-05T16:13:50.642Z,19.90
2023-05-05T16:16:17.504Z,19.70
2023-05-05T16:18:44.181Z,19.80
2023-05-05T16:21:10.913Z,19.80
2023-05-05T16:23:37.648Z,19.70
2023-05-05T16:26:04.405Z,19.60
2023-05-05T16:28:34.052Z,19.50
2023-05-05T16:31:01.813Z,19.40
2023-05-05T16:33:28.730Z,19.30
2023-05-05T16:35:55.954Z,19.00
2023-05-05T16:38:22.892Z,19.10
2023-05-05T16:40:49.679Z,19.00
2023-05-05T16:43:16.464Z,19.20
2023-05-05T16:45:43.495Z,19.20
2023-05-05T16:48:10.392Z,19.30
2023-05-05T16:50:37.054Z,19.40
2023-05-05T16:53:03.861Z,19.30
2023-05-05T16:55:30.886Z,19.40
2023-05-05T16:57:57.548Z,19.60
2023-05-05T17:00:24.243Z,19.50
2023-05-05T17:02:50.905Z,19.60
2023-05-05T17:05:17.868Z,19.50
2023-05-05T17:07:44.685Z,19.30
2023-05-05T17:10:11.469Z,19.40
2023-05-05T17:12:38.268Z,19.30
2023-05-05T17:15:05.701Z,19.40
2023-05-05T17:17:32.426Z,19.40
2023-05-05T17:19:59.297Z,19.20
2023-05-05T17:22:26.132Z,19.20
2023-05-05T17:24:52.776Z,19.20
2023-05-05T17:27:19.511Z,19.10
2023-05-05T17:29:46.176Z,19.20
2023-05-05T17:32:12.912Z,19.10
2023-05-05T17:34:40.933Z,18.70
2023-05-05T17:37:09.002Z,18.90
2023-05-05T17:39:35.720Z,19.00
2023-05-05T17:42:02.449Z,19.00
2023-05-05T17:44:29.178Z,19.10
2023-05-05T17:46:55.815Z,19.20
2023-05-05T17:49:25.107Z,19.10
2023-05-05T17:51:51.779Z,18.90
2023-05-05T17:54:18.650Z,18.80
2023-05-05T17:56:45.358Z,18.80
2023-05-05T17:59:11.995Z,18.70
2023-05-05T18:01:38.717Z,18.80
2023-05-05T18:04:05.615Z,18.70
2023-05-05T18:06:32.429Z,18.70
2023-05-05T18:08:59.066Z,18.60
2023-05-05T18:11:28.705Z,18.50
2023-05-05T18:13:56.156Z,18.50
2023-05-05T18:16:22.897Z,18.50
2023-05-05T18:18:49.640Z,18.50
2023-05-05T18:21:16.324Z,18.50
2023-05-05T18:23:43.021Z,18.40
2023-05-05T18:26:09.680Z,18.20
2023-05-05T18:28:37.465Z,18.10
2023-05-05T18:31:04.228Z,18.10
2023-05-05T18:33:30.978Z,18.00
2023-05-05T18:35:57.833Z,18.00
2023-05-05T18:38:24.732Z,17.90
2023-05-05T18:40:51.415Z,17.70
2023-05-05T18:43:18.073Z,17.70
2023-05-05T18:45:44.850Z,17.50
2023-05-05T18:48:11.653Z,17.50
2023-05-05T18:50:38.353Z,17.40
2023-05-05T18:53:05.179Z,17.40
2023-05-05T18:55:31.855Z,17.30
2023-05-05T18:57:58.558Z,17.30
2023-05-05T19:00:25.277Z,17.30
2023-05-05T19:02:51.977Z,17.20
2023-05-05T19:05:18.768Z,17.10
2023-05-05T19:07:45.700Z,17.00
2023-05-05T19:10:12.631Z,16.90
2023-05-05T19:12:39.301Z,16.80
2023-05-05T19:15:06.655Z,16.70
2023-05-05T19:17:33.613Z,16.60
2023-05-05T19:20:00.738Z,16.40
2023-05-05T19:22:27.416Z,16.40
2023-05-05T19:24:54.243Z,16.20
2023-05-05T19:27:21.422Z,16.20
2023-05-05T19:29:52.371Z,16.10
2023-05-05T19:32:20.899Z,16.00
2023-05-05T19:34:47.936Z,15.90
2023-05-05T19:37:14.693Z,15.90
2023-05-05T19:39:44.122Z,15.80
2023-05-05T19:42:11.214Z,15.70
2023-05-05T19:44:37.888Z,15.60
2023-05-05T19:47:05.108Z,15.50
2023-05-05T19:49:31.871Z,15.40
2023-05-05T19:51:58.888Z,15.30
2023-05-05T19:54:26.148Z,15.30
2023-05-05T19:56:54.558Z,15.10
2023-05-05T19:59:21.999Z,15.10
2023-05-05T20:01:49.017Z,15.00
2023-05-05T20:04:15.766Z,14.90
2023-05-05T20:06:42.482Z,14.90
2023-05-05T20:09:09.197Z,14.90
2023-05-05T20:11:35.916Z,14.80
2023-05-05T20:14:02.628Z,14.70
2023-05-05T20:16:29.379Z,14.70
2023-05-05T20:18:56.161Z,14.70
2023-05-05T20:21:22.900Z,14.70
2023-05-05T20:23:49.677Z,14.70
2023-05-05T20:26:16.892Z,14.70
2023-05-05T20:28:45.386Z,14.60
2023-05-05T20:31:14.066Z,14.50
2023-05-05T20:33:40.884Z,14.50
2023-05-05T20:36:07.697Z,14.50
2023-05-05T20:38:34.511Z,14.20
2023-05-05T20:41:01.246Z,14.20
2023-05-05T20:43:28.126Z,14.00
2023-05-05T20:45:55.089Z,14.10
2023-05-05T20:48:21.766Z,14.10
2023-05-05T20:50:48.505Z,14.10
2023-05-05T20:53:18.821Z,14.20
2023-05-05T20:55:45.792Z,14.10
2023-05-05T20:58:12.727Z,14.10
2023-05-05T21:00:39.712Z,14.00
2023-05-05T21:03:06.509Z,14.00
2023-05-05T21:05:33.280Z,14.00
2023-05-05T21:08:01.155Z,14.00
2023-05-05T21:10:28.895Z,14.00
2023-05-05T21:12:55.648Z,13.90
2023-05-05T21:15:22.401Z,13.80
2023-05-05T21:17:49.079Z,13.70
2023-05-05T21:20:16.465Z,13.60
2023-05-05T21:22:43.208Z,13.60
2023-05-05T21:25:20.611Z,13.60
2023-05-05T21:27:48.201Z,13.60
2023-05-05T21:30:15.161Z,13.40
2023-05-05T21:32:42.328Z,13.30
2023-05-05T21:35:09.340Z,13.20
2023-05-05T21:37:39.591Z,13.20
2023-05-05T21:40:10.664Z,13.10
2023-05-05T21:42:37.644Z,13.00
2023-05-05T21:45:04.815Z,12.90
2023-05-05T21:47:31.642Z,12.90
2023-05-05T21:49:58.936Z,12.90
2023-05-05T21:52:25.783Z,12.90
2023-05-05T21:54:52.437Z,12.90
2023-05-05T21:57:19.152Z,12.90
2023-05-05T21:59:46.518Z,12.90
2023-05-05T22:02:13.173Z,12.90
2023-05-05T22:04:39.821Z,12.90
2023-05-05T22:07:06.533Z,12.90
2023-05-05T22:09:33.140Z,12.80
2023-05-05T22:11:59.884Z,12.90
2023-05-05T22:14:26.641Z,12.80
2023-05-05T22:16:53.409Z,12.80
2023-05-05T22:19:20.108Z,12.70
2023-05-05T22:21:46.879Z,12.70
2023-05-05T22:24:13.585Z,12.70
2023-05-05T22:26:43.043Z,12.70
2023-05-05T22:29:10.845Z,12.60
2023-05-05T22:31:37.825Z,12.60
2023-05-05T22:34:04.623Z,12.50
2023-05-05T22:36:31.524Z,12.40
2023-05-05T22:38:58.304Z,12.50
2023-05-05T22:41:25.463Z,12.40
2023-05-05T22:43:52.161Z,12.40
2023-05-05T22:46:18.851Z,12.40
2023-05-05T22:48:46.048Z,12.40
2023-05-05T22:51:13.377Z,12.40
2023-05-05T22:53:40.225Z,12.30
2023-05-05T22:56:07.186Z,12.20
2023-05-05T22:58:33.953Z,12.20
2023-05-05T23:01:00.739Z,12.20
2023-05-05T23:03:27.457Z,12.20
2023-05-05T23:05:54.112Z,12.30
2023-05-05T23:08:20.907Z,12.20
2023-05-05T23:10:47.728Z,12.20
2023-05-05T23:13:14.421Z,12.20
2023-05-05T23:15:41.262Z,12.20
2023-05-05T23:18:08.120Z,12.20
2023-05-05T23:20:34.896Z,12.20
2023-05-05T23:23:01.570Z,12.20
2023-05-05T23:25:28.307Z,12.00
2023-05-05T23:27:55.019Z,12.10
2023-05-05T23:30:21.796Z,12.10
2023-05-05T23:32:48.550Z,12.00
2023-05-05T23:35:15.368Z,12.00
2023-05-05T23:37:42.074Z,12.00
2023-05-05T23:40:09.134Z,12.10
2023-05-05T23:42:35.855Z,12.00
2023-05-05T23:45:03.037Z,12.00
2023-05-05T23:47:29.768Z,12.10
2023-05-05T23:49:56.608Z,12.10
2023-05-05T23:52:23.343Z,12.20
2023-05-05T23:54:50.067Z,12.20
2023-05-05T23:57:16.758Z,12.30
2023-05-05T23:59:43.464Z,12.20
